Time;durP1;ratioP1;P1;durP2;ratioP2;P2;SDS_P1;SDS_P2;PMS_P1;PMS_P2;Temp;Humidity;BMP_temperature;BMP_pressure;BME280_temperature;BME280_humidity;BME280_pressure;Samples;Min_cycle;Max_cycle;Signal;HPM_P1;HPM_P2
2023/10/15 00:01:29;;;;;;;1999.90;999.90;;;7.80;99.90;;;;;;5073916;28;20053;-73
2023/10/15 00:03:55;;;;;;;1999.90;999.90;;;7.70;99.90;;;;;;5074909;28;20033;-75
2023/10/15 00:06:20;;;;;;;1999.90;999.90;;;7.60;99.90;;;;;;5075253;28;20044;-73
2023/10/15 00:08:46;;;;;;;1999.90;999.90;;;7.70;99.90;;;;;;5075081;28;20079;-73
2023/10/15 00:11:18;;;;;;;1999.90;999.90;;;7.60;99.90;;;;;;5073675;28;20033;-76
2023/10/15 00:13:44;;;;;;;1999.90;999.90;;;7.70;99.90;;;;;;5075265;28;20036;-73
2023/10/15 00:16:17;;;;;;;1999.90;999.90;;;7.60;99.90;;;;;;5074752;28;20134;-73
2023/10/15 00:18:42;;;;;;;1999.90;999.90;;;7.60;99.90;;;;;;5073650;28;20044;-75
2023/10/15 00:21:12;;;;;;;1999.90;999.90;;;7.60;99.90;;;;;;5073612;28;20080;-73
2023/10/15 00:23:42;;;;;;;1999.90;999.90;;;7.50;99.90;;;;;;5074629;28;20802;-73
2023/10/15 00:26:10;;;;;;;1999.90;999.90;;;7.40;99.90;;;;;;5074445;28;20044;-73
2023/10/15 00:28:36;;;;;;;1999.90;999.90;;;7.30;99.90;;;;;;5075028;28;20029;-73
2023/10/15 00:31:08;;;;;;;1999.90;999.90;;;7.20;99.90;;;;;;5075117;28;20024;-73
2023/10/15 00:33:33;;;;;;;1999.90;999.90;;;7.20;99.90;;;;;;5073229;28;20040;-76
2023/10/15 00:35:59;;;;;;;1999.90;999.90;;;7.10;99.90;;;;;;5074449;28;20056;-73
2023/10/15 00:38:25;;;;;;;1999.90;999.90;;;7.00;99.90;;;;;;5074872;28;20029;-73
2023/10/15 00:41:00;;;;;;;1999.90;999.90;;;7.00;99.90;;;;;;5074330;28;20037;-73
2023/10/15 00:43:26;;;;;;;1999.90;999.90;;;7.10;99.90;;;;;;5074935;28;20025;-74
2023/10/15 00:45:52;;;;;;;1999.90;999.90;;;7.00;99.90;;;;;;5074136;28;20037;-73
2023/10/15 00:48:22;;;;;;;1999.90;999.90;;;7.10;99.90;;;;;;5074752;28;20090;-73
2023/10/15 00:50:49;;;;;;;1999.90;999.90;;;7.10;99.90;;;;;;5074639;28;20037;-72
2023/10/15 00:53:23;;;;;;;1999.90;999.90;;;7.10;99.90;;;;;;5073154;28;20172;-73
2023/10/15 00:55:53;;;;;;;1999.90;999.90;;;7.20;99.90;;;;;;5074357;28;20044;-74
2023/10/15 00:58:31;;;;;;;1999.90;999.90;;;7.30;99.90;;;;;;5074392;28;20033;-73
2023/10/15 01:01:00;;;;;;;1999.90;999.90;;;7.30;99.90;;;;;;5074608;28;20056;-73
2023/10/15 01:03:32;;;;;;;1999.90;999.90;;;7.40;99.90;;;;;;5074444;28;20032;-73
2023/10/15 01:06:00;;;;;;;1999.90;999.90;;;7.50;99.90;;;;;;5073563;28;20037;-74
2023/10/15 01:08:34;;;;;;;1999.90;999.90;;;7.60;99.90;;;;;;5074384;28;20050;-73
2023/10/15 01:11:19;;;;;;;1999.90;999.90;;;7.60;99.90;;;;;;5074609;28;20040;-74
2023/10/15 01:13:45;;;;;;;1999.90;999.90;;;7.60;99.90;;;;;;5072809;28;20037;-73
2023/10/15 01:16:17;;;;;;;1999.90;999.90;;;7.70;99.90;;;;;;5072657;28;20028;-74
2023/10/15 01:18:45;;;;;;;1999.90;999.90;;;7.80;99.90;;;;;;5074555;28;20075;-73
2023/10/15 01:21:13;;;;;;;1999.90;999.90;;;7.80;99.90;;;;;;5074296;28;20041;-73
2023/10/15 01:26:23;;;;;;;1999.90;999.90;;;7.80;99.90;;;;;;5073913;28;20132;-73
2023/10/15 01:28:51;;;;;;;1999.90;999.90;;;7.80;99.90;;;;;;5073937;28;20036;-74
2023/10/15 01:31:17;;;;;;;1999.90;999.90;;;7.80;99.90;;;;;;5074228;28;20517;-75
2023/10/15 01:33:50;;;;;;;1999.90;999.90;;;7.90;99.90;;;;;;5072433;28;20044;-74
2023/10/15 01:36:26;;;;;;;1999.90;999.90;;;8.00;99.90;;;;;;5072419;28;20127;-75
2023/10/15 01:38:57;;;;;;;1999.90;999.90;;;8.10;99.90;;;;;;5075842;28;20029;-74
2023/10/15 01:41:25;;;;;;;1999.90;999.90;;;8.20;99.90;;;;;;5077819;28;20503;-74
2023/10/15 01:43:56;;;;;;;1999.90;999.90;;;8.20;99.90;;;;;;5075922;28;20029;-74
2023/10/15 01:49:07;;;;;;;1999.90;999.90;;;8.20;99.90;;;;;;5077651;28;20474;-74
2023/10/15 01:51:40;;;;;;;1999.90;999.90;;;8.30;99.90;;;;;;5076457;28;20040;-74
2023/10/15 01:54:09;;;;;;;1999.90;999.90;;;8.40;99.90;;;;;;5077297;28;20033;-74
2023/10/15 01:56:37;;;;;;;1999.90;999.90;;;8.30;99.90;;;;;;5076955;28;20025;-74
2023/10/15 01:59:08;;;;;;;1999.90;999.90;;;8.30;99.90;;;;;;5077051;28;20159;-74
2023/10/15 02:01:37;;;;;;;1999.90;999.90;;;8.20;99.90;;;;;;5077478;28;20033;-74
2023/10/15 02:04:04;;;;;;;1999.90;999.90;;;8.20;99.90;;;;;;5075197;28;20040;-74
2023/10/15 02:06:35;;;;;;;1999.90;999.90;;;8.10;99.90;;;;;;5077064;28;20028;-74
2023/10/15 02:09:07;;;;;;;1999.90;999.90;;;8.00;99.90;;;;;;5077374;28;20029;-74
2023/10/15 02:11:36;;;;;;;1999.90;999.90;;;8.10;99.90;;;;;;5075757;28;20144;-74
2023/10/15 02:14:07;;;;;;;1999.90;999.90;;;8.00;99.90;;;;;;5076734;28;20065;-74
2023/10/15 02:16:37;;;;;;;1999.90;999.90;;;8.00;99.90;;;;;;5075265;28;20029;-74
2023/10/15 02:19:07;;;;;;;1999.90;999.90;;;8.00;99.90;;;;;;5075461;28;20079;-74
2023/10/15 02:21:34;;;;;;;1999.90;999.90;;;8.00;99.90;;;;;;5076560;28;20024;-74
2023/10/15 02:24:08;;;;;;;1999.90;999.90;;;8.10;99.90;;;;;;5076752;28;20483;-74
2023/10/15 02:26:35;;;;;;;1999.90;999.90;;;8.10;99.90;;;;;;5076583;28;20478;-74
2023/10/15 02:29:07;;;;;;;1999.90;999.90;;;8.20;99.90;;;;;;5076834;28;20025;-75
2023/10/15 02:31:41;;;;;;;1999.90;999.90;;;8.20;99.90;;;;;;5075117;28;20037;-75
2023/10/15 02:34:14;;;;;;;1999.90;999.90;;;8.20;99.90;;;;;;5074898;28;20214;-74
2023/10/15 02:36:41;;;;;;;1999.90;999.90;;;8.20;99.90;;;;;;5076666;28;20108;-74
2023/10/15 02:39:07;;;;;;;1999.90;999.90;;;8.30;99.90;;;;;;5076622;28;20033;-75
2023/10/15 02:41:40;;;;;;;1999.90;999.90;;;8.40;99.90;;;;;;5076639;28;20033;-74
2023/10/15 02:44:12;;;;;;;1999.90;999.90;;;8.30;99.90;;;;;;5076538;28;20032;-74
2023/10/15 02:46:47;;;;;;;1999.90;999.90;;;8.40;99.90;;;;;;5076234;28;20039;-74
2023/10/15 02:49:17;;;;;;;1999.90;999.90;;;8.40;99.90;;;;;;5075719;28;20036;-74
2023/10/15 02:51:45;;;;;;;1999.90;999.90;;;8.40;99.90;;;;;;5076343;28;20493;-74
2023/10/15 02:57:06;;;;;;;1999.90;999.90;;;8.30;99.90;;;;;;5066068;28;20037;-74
2023/10/15 02:59:32;;;;;;;1999.90;999.90;;;8.40;99.90;;;;;;5075963;28;20037;-75
2023/10/15 03:02:06;;;;;;;1999.90;999.90;;;8.40;99.90;;;;;;5074701;28;20040;-75
2023/10/15 03:04:37;;;;;;;1999.90;999.90;;;8.30;99.90;;;;;;5074462;28;20064;-74
2023/10/15 03:10:03;;;;;;;1999.90;999.90;;;8.30;99.90;;;;;;5052087;28;20037;-75
2023/10/15 03:12:33;;;;;;;1999.90;999.90;;;8.30;99.90;;;;;;5074598;28;20037;-75
2023/10/15 03:15:00;;;;;;;1999.90;999.90;;;8.30;99.90;;;;;;5075756;28;20029;-75
2023/10/15 03:17:29;;;;;;;1999.90;999.90;;;8.30;99.90;;;;;;5075598;28;20029;-75
2023/10/15 03:20:10;;;;;;;1999.90;999.90;;;8.40;99.90;;;;;;5075690;28;20068;-75
2023/10/15 03:22:38;;;;;;;1999.90;999.90;;;8.40;99.90;;;;;;5075842;28;20025;-75
2023/10/15 03:25:06;;;;;;;1999.90;999.90;;;8.30;99.90;;;;;;5075611;28;20041;-75
2023/10/15 03:27:32;;;;;;;1999.90;999.90;;;8.40;99.90;;;;;;5075309;28;20079;-73
2023/10/15 03:29:58;;;;;;;1999.90;999.90;;;8.50;99.90;;;;;;5075635;28;20033;-75
2023/10/15 03:32:31;;;;;;;1999.90;999.90;;;8.50;99.90;;;;;;5075332;28;20037;-74
2023/10/15 03:35:05;;;;;;;1999.90;999.90;;;8.40;99.90;;;;;;5075438;28;20120;-75
2023/10/15 03:37:31;;;;;;;1999.90;999.90;;;8.40;99.90;;;;;;5075449;28;20091;-75
2023/10/15 03:39:57;;;;;;;1999.90;999.90;;;8.40;99.90;;;;;;5075541;28;20090;-75
2023/10/15 03:42:26;;;;;;;1999.90;999.90;;;8.40;99.90;;;;;;5075662;28;20075;-75
2023/10/15 03:44:58;;;;;;;1999.90;999.90;;;8.40;99.90;;;;;;5075051;28;20128;-75
2023/10/15 03:47:25;;;;;;;1999.90;999.90;;;8.40;99.90;;;;;;5074696;28;20021;-76
2023/10/15 03:49:51;;;;;;;1999.90;999.90;;;8.50;99.90;;;;;;5075375;28;20067;-75
2023/10/15 03:52:20;;;;;;;1999.90;999.90;;;8.50;99.90;;;;;;5075298;28;20025;-75
2023/10/15 03:54:49;;;;;;;1999.90;999.90;;;8.60;99.90;;;;;;5075241;28;20534;-75
2023/10/15 03:57:19;;;;;;;1999.90;999.90;;;8.50;99.90;;;;;;5074938;28;20032;-73
2023/10/15 03:59:54;;;;;;;1999.90;999.90;;;8.50;99.90;;;;;;5073630;28;20087;-75
2023/10/15 04:02:39;;;;;;;1999.90;999.90;;;8.60;99.90;;;;;;5074674;28;20025;-75
2023/10/15 04:05:08;;;;;;;1999.90;999.90;;;8.50;99.90;;;;;;5075265;28;20041;-74
2023/10/15 04:07:53;;;;;;;1999.90;999.90;;;8.50;99.90;;;;;;5075036;28;20064;-74
2023/10/15 04:10:23;;;;;;;1999.90;999.90;;;8.60;99.90;;;;;;5075426;28;20402;-75
2023/10/15 04:12:49;;;;;;;1999.90;999.90;;;8.60;99.90;;;;;;5075086;28;20096;-74
2023/10/15 04:15:16;;;;;;;1999.90;999.90;;;8.60;99.90;;;;;;5074948;28;20063;-74
2023/10/15 04:17:45;;;;;;;1999.90;999.90;;;8.60;99.90;;;;;;5074850;28;20536;-74
2023/10/15 04:20:15;;;;;;;1999.90;999.90;;;8.70;99.90;;;;;;5075005;28;20033;-74
2023/10/15 04:22:44;;;;;;;1999.90;999.90;;;8.70;99.90;;;;;;5074935;28;20029;-74
2023/10/15 04:25:23;;;;;;;1999.90;999.90;;;8.70;99.90;;;;;;5074751;28;20039;-74
2023/10/15 04:27:50;;;;;;;1999.90;999.90;;;8.70;99.90;;;;;;5074915;28;20021;-75
2023/10/15 04:30:16;;;;;;;1999.90;999.90;;;8.70;99.90;;;;;;5073517;28;20036;-75
2023/10/15 04:35:16;;;;;;;1999.90;999.90;;;8.70;99.90;;;;;;5074812;28;20060;-74
2023/10/15 04:37:44;;;;;;;1999.90;999.90;;;8.80;99.90;;;;;;5074772;28;20372;-74
2023/10/15 04:40:11;;;;;;;1999.90;999.90;;;8.80;99.90;;;;;;5074682;28;20044;-74
2023/10/15 04:42:41;;;;;;;1999.90;999.90;;;8.80;99.90;;;;;;5074951;28;20111;-75
2023/10/15 04:47:53;;;;;;;1999.90;999.90;;;8.80;99.90;;;;;;5074180;28;20120;-76
2023/10/15 04:50:19;;;;;;;1999.90;999.90;;;8.90;99.90;;;;;;5074635;28;20072;-76
2023/10/15 04:52:45;;;;;;;1999.90;999.90;;;8.90;99.90;;;;;;5074882;28;20707;-73
2023/10/15 04:55:13;;;;;;;1999.90;999.90;;;8.90;99.90;;;;;;5074541;28;20556;-73
2023/10/15 04:57:39;;;;;;;1999.90;999.90;;;8.90;99.90;;;;;;5074250;28;20033;-73
2023/10/15 05:00:06;;;;;;;1999.90;999.90;;;9.00;99.90;;;;;;5074735;28;20116;-74
2023/10/15 05:02:35;;;;;;;1999.90;999.90;;;9.00;99.90;;;;;;5074558;28;20031;-74
2023/10/15 05:05:01;;;;;;;1999.90;999.90;;;9.00;99.90;;;;;;5074286;28;20032;-74
2023/10/15 05:07:30;;;;;;;1999.90;999.90;;;9.00;99.90;;;;;;5072611;28;20039;-74
2023/10/15 05:09:55;;;;;;;1999.90;999.90;;;8.90;99.90;;;;;;5074856;28;20065;-74
2023/10/15 05:12:21;;;;;;;1999.90;999.90;;;8.90;99.90;;;;;;5073751;28;20068;-74
2023/10/15 05:14:49;;;;;;;1999.90;999.90;;;8.90;99.90;;;;;;5077805;28;20505;-75
2023/10/15 05:17:15;;;;;;;1999.90;999.90;;;8.90;99.90;;;;;;5077725;28;20573;-74
2023/10/15 05:19:42;;;;;;;1999.90;999.90;;;8.90;99.90;;;;;;5076325;28;20045;-75
2023/10/15 05:22:08;;;;;;;1999.90;999.90;;;8.90;99.90;;;;;;5077777;28;20391;-74
2023/10/15 05:24:34;;;;;;;1999.90;999.90;;;8.80;99.90;;;;;;5077704;28;20063;-74
2023/10/15 05:27:00;;;;;;;1999.90;999.90;;;8.70;99.90;;;;;;5077183;28;20083;-74
2023/10/15 05:29:26;;;;;;;1999.90;999.90;;;8.70;99.90;;;;;;5077865;28;20048;-74
2023/10/15 05:31:53;;;;;;;1999.90;999.90;;;8.60;99.90;;;;;;5076358;28;20029;-75
2023/10/15 05:34:19;;;;;;;1999.90;999.90;;;8.50;99.90;;;;;;5077580;28;20116;-74
2023/10/15 05:36:45;;;;;;;1999.90;999.90;;;8.50;99.90;;;;;;5075932;28;20159;-74
2023/10/15 05:39:15;;;;;;;1999.90;999.90;;;8.60;99.90;;;;;;5077726;28;20116;-74
2023/10/15 05:41:44;;;;;;;1999.90;999.90;;;8.60;99.90;;;;;;5076198;28;20505;-75
2023/10/15 05:44:09;;;;;;;1999.90;999.90;;;8.50;99.90;;;;;;5077327;28;20053;-74
2023/10/15 05:46:35;;;;;;;1999.90;999.90;;;8.50;99.90;;;;;;5077116;28;20112;-74
2023/10/15 05:49:00;;;;;;;1999.90;999.90;;;8.40;99.90;;;;;;5077530;28;20040;-74
2023/10/15 05:51:27;;;;;;;1999.90;999.90;;;8.40;99.90;;;;;;5077368;28;20037;-74
2023/10/15 05:53:53;;;;;;;1999.90;999.90;;;8.50;99.90;;;;;;5075486;28;20410;-74
2023/10/15 05:56:21;;;;;;;1999.90;999.90;;;8.50;99.90;;;;;;5077158;28;20051;-74
2023/10/15 05:58:47;;;;;;;1999.90;999.90;;;8.50;99.90;;;;;;5077610;28;20140;-73
2023/10/15 06:01:12;;;;;;;1999.90;999.90;;;8.50;99.90;;;;;;5080472;28;20059;-73
2023/10/15 06:03:38;;;;;;;1999.90;999.90;;;8.60;99.90;;;;;;5081903;28;20033;-74
2023/10/15 06:06:05;;;;;;;1999.90;999.90;;;8.50;99.90;;;;;;5076827;28;20119;-74
2023/10/15 06:08:30;;;;;;;1999.90;999.90;;;8.50;99.90;;;;;;5075796;28;20033;-74
2023/10/15 06:10:57;;;;;;;1999.90;999.90;;;8.50;99.90;;;;;;5077059;28;20507;-74
2023/10/15 06:13:23;;;;;;;1999.90;999.90;;;8.50;99.90;;;;;;5075420;28;20142;-74
2023/10/15 06:15:50;;;;;;;1999.90;999.90;;;8.60;99.90;;;;;;5074828;28;20617;-74
2023/10/15 06:18:15;;;;;;;1999.90;999.90;;;8.70;99.90;;;;;;5076911;28;20521;-74
2023/10/15 06:20:41;;;;;;;1999.90;999.90;;;8.70;99.90;;;;;;5077063;28;20044;-74
2023/10/15 06:23:08;;;;;;;1999.90;999.90;;;8.70;99.90;;;;;;5077038;28;20037;-75
2023/10/15 06:25:35;;;;;;;1999.90;999.90;;;8.70;99.90;;;;;;5075941;28;20057;-74
2023/10/15 06:28:01;;;;;;;1999.90;999.90;;;8.80;99.90;;;;;;5076886;28;20052;-75
2023/10/15 06:30:27;;;;;;;1999.90;999.90;;;8.80;99.90;;;;;;5076621;28;20033;-74
2023/10/15 06:32:52;;;;;;;1999.90;999.90;;;8.90;99.90;;;;;;5086363;28;20029;-74
2023/10/15 06:35:20;;;;;;;1999.90;999.90;;;8.90;99.90;;;;;;5087884;28;20547;-74
2023/10/15 06:37:46;;;;;;;1999.90;999.90;;;9.00;99.90;;;;;;5095015;28;20033;-74
2023/10/15 06:40:13;;;;;;;1999.90;999.90;;;9.10;99.90;;;;;;5093499;28;20094;-74
2023/10/15 06:42:40;;;;;;;1999.90;999.90;;;9.20;99.90;;;;;;5096179;28;20043;-74
2023/10/15 06:45:06;;;;;;;1999.90;999.90;;;9.20;99.90;;;;;;5096083;28;20598;-74
2023/10/15 06:47:33;;;;;;;1999.90;999.90;;;9.10;99.90;;;;;;5096288;28;20028;-74
2023/10/15 06:49:58;;;;;;;1999.90;999.90;;;9.20;99.90;;;;;;5096102;28;20040;-74
2023/10/15 06:52:24;;;;;;;1999.90;999.90;;;9.20;99.90;;;;;;5096894;28;20037;-74
2023/10/15 06:54:49;;;;;;;1999.90;999.90;;;9.30;99.90;;;;;;5093198;28;20541;-74
2023/10/15 06:57:16;;;;;;;1999.90;999.90;;;9.30;99.90;;;;;;5081345;28;20510;-74
2023/10/15 06:59:43;;;;;;;1999.90;999.90;;;9.30;99.90;;;;;;5096286;28;20043;-76
2023/10/15 07:02:09;;;;;;;1999.90;999.90;;;9.30;99.90;;;;;;5092380;28;20429;-76
2023/10/15 07:04:34;;;;;;;1999.90;999.90;;;9.30;99.90;;;;;;5096178;28;20046;-76
2023/10/15 07:07:00;;;;;;;1999.90;999.90;;;9.30;99.90;;;;;;5096413;28;20029;-78
2023/10/15 07:09:27;;;;;;;1999.90;999.90;;;9.30;99.90;;;;;;5096074;28;20505;-76
2023/10/15 07:11:53;;;;;;;1999.90;999.90;;;9.30;99.90;;;;;;5093968;28;20033;-75
2023/10/15 07:14:19;;;;;;;1999.90;999.90;;;9.30;99.90;;;;;;5095667;28;20032;-74
2023/10/15 07:16:45;;;;;;;1999.90;999.90;;;9.20;99.90;;;;;;5095904;28;20033;-75
2023/10/15 07:19:11;;;;;;;1999.90;999.90;;;9.30;99.90;;;;;;5096576;28;20406;-74
2023/10/15 07:21:37;;;;;;;1999.90;999.90;;;9.30;99.90;;;;;;5096493;28;20043;-73
2023/10/15 07:24:05;;;;;;;1999.90;999.90;;;9.40;99.90;;;;;;5096098;28;20039;-75
2023/10/15 07:26:30;;;;;;;1999.90;999.90;;;9.50;99.90;;;;;;5096141;28;20029;-73
2023/10/15 07:28:56;;;;;;;1999.90;999.90;;;9.60;99.90;;;;;;5096224;28;20029;-73
2023/10/15 07:31:22;;;;;;;1999.90;999.90;;;9.60;99.90;;;;;;5096426;28;20032;-74
2023/10/15 07:33:47;;;;;;;1999.90;999.90;;;9.70;99.90;;;;;;5095860;28;20032;-76
2023/10/15 07:36:13;;;;;;;1999.90;999.90;;;9.70;99.90;;;;;;5094858;28;20043;-73
2023/10/15 07:38:39;;;;;;;1999.90;999.90;;;9.60;99.90;;;;;;5074491;28;20021;-73
2023/10/15 07:41:05;;;;;;;1999.90;999.90;;;9.50;99.90;;;;;;5076199;28;20125;-73
2023/10/15 07:43:31;;;;;;;1999.90;999.90;;;9.40;99.90;;;;;;5075549;28;20118;-73
2023/10/15 07:45:57;;;;;;;1999.90;999.90;;;9.30;99.90;;;;;;5075193;28;20626;-71
2023/10/15 07:48:22;;;;;;;1999.90;999.90;;;9.20;99.90;;;;;;5075743;28;20036;-75
2023/10/15 07:50:48;;;;;;;1999.90;999.90;;;9.10;99.90;;;;;;5075137;28;20124;-73
2023/10/15 07:53:13;;;;;;;1999.90;999.90;;;9.10;99.90;;;;;;5088135;28;20060;-75
2023/10/15 07:55:39;;;;;;;1999.90;999.90;;;9.20;99.90;;;;;;5095927;28;20478;-76
2023/10/15 07:58:05;;;;;;;1999.90;999.90;;;9.40;99.90;;;;;;5091628;28;20815;-75
2023/10/15 08:00:33;;;;;;;1999.90;999.90;;;9.50;99.90;;;;;;5090767;28;20047;-75
2023/10/15 08:02:59;;;;;;;1999.90;999.90;;;9.60;99.90;;;;;;5091509;28;20563;-79
2023/10/15 08:05:24;;;;;;;1999.90;999.90;;;9.70;99.90;;;;;;5078259;28;20067;-75
2023/10/15 08:07:51;;;;;;;1999.90;999.90;;;9.80;99.90;;;;;;5076976;28;20394;-76
2023/10/15 08:10:20;;;;;;;1999.90;999.90;;;9.90;99.90;;;;;;5088254;28;20758;-75
2023/10/15 08:12:48;;;;;;;1999.90;999.90;;;10.10;99.90;;;;;;5086416;28;20079;-78
2023/10/15 08:15:14;;;;;;;1999.90;999.90;;;10.10;99.90;;;;;;5094249;28;20043;-77
2023/10/15 08:17:40;;;;;;;1999.90;999.90;;;10.10;99.90;;;;;;5090331;28;20051;-76
2023/10/15 08:20:09;;;;;;;1999.90;999.90;;;10.10;99.90;;;;;;5074613;28;20104;-77
2023/10/15 08:22:35;;;;;;;1999.90;999.90;;;10.10;99.90;;;;;;5087465;28;20029;-77
2023/10/15 08:25:00;;;;;;;1999.90;999.90;;;10.10;99.90;;;;;;5075242;28;20103;-74
2023/10/15 08:27:26;;;;;;;1999.90;999.90;;;10.10;99.90;;;;;;5074720;28;20487;-77
2023/10/15 08:29:52;;;;;;;1999.90;999.90;;;10.00;99.90;;;;;;5073562;28;20036;-79
2023/10/15 08:32:17;;;;;;;1999.90;999.90;;;10.00;99.90;;;;;;5075184;28;20025;-75
2023/10/15 08:34:44;;;;;;;1999.90;999.90;;;10.10;99.90;;;;;;5088839;28;20123;-75
2023/10/15 08:37:10;;;;;;;1999.90;999.90;;;10.10;99.90;;;;;;5095312;28;20460;-75
2023/10/15 08:39:38;;;;;;;1999.90;999.90;;;10.20;99.90;;;;;;5095286;28;20135;-74
2023/10/15 08:42:11;;;;;;;1999.90;999.90;;;10.30;99.90;;;;;;5081571;28;20025;-74
2023/10/15 08:44:38;;;;;;;1999.90;999.90;;;10.50;99.90;;;;;;5075101;28;20041;-73
2023/10/15 08:47:07;;;;;;;1999.90;999.90;;;10.50;99.90;;;;;;5074203;28;20035;-75
2023/10/15 08:49:35;;;;;;;1999.90;999.90;;;10.40;99.90;;;;;;5073252;28;20144;-74
2023/10/15 08:52:01;;;;;;;1999.90;999.90;;;10.40;99.90;;;;;;5074870;28;20950;-75
2023/10/15 08:54:28;;;;;;;1999.90;999.90;;;10.50;99.90;;;;;;5074552;28;20704;-75
2023/10/15 08:56:55;;;;;;;1999.90;999.90;;;10.40;99.90;;;;;;5074489;28;20121;-74
2023/10/15 08:59:22;;;;;;;1999.90;999.90;;;10.50;99.90;;;;;;5073048;28;20527;-74
2023/10/15 09:01:51;;;;;;;1999.90;999.90;;;10.50;99.90;;;;;;5074615;28;20041;-74
2023/10/15 09:04:17;;;;;;;1999.90;999.90;;;10.50;99.90;;;;;;5074187;28;20052;-73
2023/10/15 09:06:47;;;;;;;1999.90;999.90;;;10.70;99.90;;;;;;5074264;28;20065;-78
2023/10/15 09:09:13;;;;;;;1999.90;999.90;;;10.80;99.90;;;;;;5073347;28;20033;-76
2023/10/15 09:11:42;;;;;;;1999.90;999.90;;;11.00;99.90;;;;;;5073195;28;20087;-79
2023/10/15 09:14:13;;;;;;;1999.90;999.90;;;11.20;99.90;;;;;;5073710;28;20044;-77
2023/10/15 09:16:46;;;;;;;1999.90;999.90;;;11.50;99.90;;;;;;5074445;28;20025;-77
2023/10/15 09:19:12;;;;;;;1999.90;999.90;;;11.80;99.90;;;;;;5074069;28;20033;-76
2023/10/15 09:21:38;;;;;;;1999.90;999.90;;;12.00;99.90;;;;;;5073013;28;20746;-76
2023/10/15 09:24:05;;;;;;;1999.90;999.90;;;12.10;99.90;;;;;;5074253;28;20091;-77
2023/10/15 09:26:31;;;;;;;1999.90;999.90;;;12.10;99.90;;;;;;5073905;28;20041;-77
2023/10/15 09:28:57;;;;;;;1999.90;999.90;;;12.00;99.90;;;;;;5074256;28;20112;-77
2023/10/15 09:31:23;;;;;;;1999.90;999.90;;;11.80;99.90;;;;;;5074307;28;20041;-76
2023/10/15 09:33:51;;;;;;;1999.90;999.90;;;11.40;99.90;;;;;;5089323;28;20086;-77
2023/10/15 09:36:17;;;;;;;1999.90;999.90;;;11.10;99.90;;;;;;5094872;28;20037;-77
2023/10/15 09:38:42;;;;;;;1999.90;999.90;;;11.10;99.90;;;;;;5093802;28;20044;-77
2023/10/15 09:41:10;;;;;;;1999.90;999.90;;;10.90;99.90;;;;;;5093140;28;20048;-78
2023/10/15 09:43:36;;;;;;;1999.90;999.90;;;10.80;99.90;;;;;;5094697;28;20039;-75
2023/10/15 09:46:05;;;;;;;1999.90;999.90;;;10.90;99.90;;;;;;5094537;28;20031;-77
2023/10/15 09:48:33;;;;;;;1999.90;999.90;;;11.10;99.90;;;;;;5094408;28;20116;-77
2023/10/15 09:50:59;;;;;;;1999.90;999.90;;;11.20;99.90;;;;;;5094088;28;20036;-78
2023/10/15 09:53:28;;;;;;;1999.90;999.90;;;11.20;99.90;;;;;;5093680;28;20167;-78
2023/10/15 09:55:55;;;;;;;1999.90;999.90;;;11.30;99.90;;;;;;5094457;28;20032;-78
2023/10/15 09:58:22;;;;;;;1999.90;999.90;;;11.40;99.90;;;;;;5093838;28;20021;-82
2023/10/15 10:01:08;;;;;;;1999.90;999.90;;;11.60;99.90;;;;;;5098021;28;20117;-79
2023/10/15 10:03:49;;;;;;;1999.90;999.90;;;11.80;99.90;;;;;;5097540;28;20033;-79
2023/10/15 10:06:51;;;;;;;1999.90;999.90;;;11.60;99.90;;;;;;5090116;28;20068;-80
2023/10/15 10:10:02;;;;;;;1999.90;999.90;;;11.50;99.90;;;;;;5076105;28;20040;-79
2023/10/15 10:12:46;;;;;;;1999.90;999.90;;;11.50;99.90;;;;;;5076616;28;20032;-81
2023/10/15 10:15:29;;;;;;;1999.90;999.90;;;11.20;99.90;;;;;;5077326;28;20029;-79
2023/10/15 10:17:55;;;;;;;1999.90;999.90;;;10.90;99.90;;;;;;5076399;28;20111;-80
2023/10/15 10:20:31;;;;;;;1999.90;999.90;;;10.80;99.90;;;;;;5076194;28;20052;-79
2023/10/15 10:23:03;;;;;;;1999.90;999.90;;;10.90;99.90;;;;;;5076485;28;20071;-81
2023/10/15 10:25:49;;;;;;;1999.90;999.90;;;11.40;99.90;;;;;;5075662;28;20036;-80
2023/10/15 10:28:16;;;;;;;1999.90;999.90;;;11.70;99.90;;;;;;5076015;28;20029;-81
2023/10/15 10:30:56;;;;;;;1999.90;999.90;;;11.70;99.90;;;;;;5076437;28;20041;-81
2023/10/15 10:33:46;;;;;;;1999.90;999.90;;;11.60;99.90;;;;;;5077910;28;20040;-81
2023/10/15 10:36:14;;;;;;;1999.90;999.90;;;11.60;99.90;;;;;;5077157;28;20037;-81
2023/10/15 10:38:44;;;;;;;1999.90;999.90;;;12.10;99.90;;;;;;5076336;28;20033;-81
2023/10/15 10:41:14;;;;;;;1999.90;999.90;;;12.40;99.90;;;;;;5076110;28;20041;-80
2023/10/15 10:43:42;;;;;;;1999.90;999.90;;;12.50;99.90;;;;;;5077196;28;20029;-81
2023/10/15 10:46:18;;;;;;;1999.90;999.90;;;12.50;99.90;;;;;;5075439;28;20087;-80
2023/10/15 10:49:01;;;;;;;1999.90;999.90;;;12.30;99.90;;;;;;5075399;28;20036;-79
2023/10/15 10:51:30;;;;;;;1999.90;999.90;;;12.00;99.90;;;;;;5077217;28;20037;-79
2023/10/15 10:53:56;;;;;;;1999.90;999.90;;;11.60;99.90;;;;;;5078978;28;20506;-78
2023/10/15 10:56:22;;;;;;;1999.90;999.90;;;11.30;99.90;;;;;;5077374;28;20041;-78
2023/10/15 10:58:51;;;;;;;1999.90;999.90;;;10.70;99.90;;;;;;5078633;28;20033;-78
2023/10/15 11:01:17;;;;;;;1999.90;999.90;;;10.20;99.90;;;;;;5081044;28;20072;-83
2023/10/15 11:03:44;;;;;;;1999.90;999.90;;;10.00;99.90;;;;;;5077430;28;20065;-78
2023/10/15 11:06:10;;;;;;;1999.90;999.90;;;9.70;99.90;;;;;;5080062;28;20089;-79
2023/10/15 11:08:35;;;;;;;1999.90;999.90;;;9.50;99.90;;;;;;5080602;28;20120;-81
2023/10/15 11:11:01;;;;;;;1999.90;999.90;;;9.30;99.90;;;;;;5081344;28;20483;-78
2023/10/15 11:13:30;;;;;;;1999.90;999.90;;;9.20;99.90;;;;;;5079498;28;20034;-81
2023/10/15 11:15:56;;;;;;;1999.90;999.90;;;9.20;99.90;;;;;;5079094;28;20036;-80
2023/10/15 11:18:26;;;;;;;1999.90;999.90;;;9.40;99.90;;;;;;5077410;28;20025;-79
2023/10/15 11:20:52;;;;;;;1999.90;999.90;;;9.60;99.90;;;;;;5076712;28;20040;-76
2023/10/15 11:23:19;;;;;;;1999.90;999.90;;;9.80;99.90;;;;;;5076386;28;20028;-76
2023/10/15 11:25:45;;;;;;;1999.90;999.90;;;10.00;99.90;;;;;;5075293;28;20043;-75
2023/10/15 11:28:11;;;;;;;1999.90;999.90;;;10.20;99.90;;;;;;5094639;28;20028;-75
2023/10/15 11:30:41;;;;;;;1999.90;999.90;;;10.40;99.90;;;;;;5095785;28;20143;-76
2023/10/15 11:33:12;;;;;;;1999.90;999.90;;;10.60;99.90;;;;;;5095352;28;20029;-76
2023/10/15 11:35:38;;;;;;;1999.90;999.90;;;10.90;99.90;;;;;;5095606;28;20040;-76
2023/10/15 11:38:11;;;;;;;1999.90;999.90;;;11.20;99.90;;;;;;5094957;28;20032;-75
2023/10/15 11:40:39;;;;;;;1999.90;999.90;;;11.40;99.90;;;;;;5094737;28;20420;-76
2023/10/15 11:43:21;;;;;;;1999.90;999.90;;;11.80;99.90;;;;;;5094954;28;20028;-77
2023/10/15 11:45:47;;;;;;;1999.90;999.90;;;11.90;99.90;;;;;;5094823;28;20101;-77
2023/10/15 11:48:13;;;;;;;1999.90;999.90;;;11.70;99.90;;;;;;5094186;28;20029;-74
2023/10/15 11:50:44;;;;;;;1999.90;999.90;;;11.90;99.90;;;;;;5095939;28;20041;-74
2023/10/15 11:53:23;;;;;;;1999.90;999.90;;;12.00;99.90;;;;;;5095831;28;20063;-74
2023/10/15 11:55:53;;;;;;;1999.90;999.90;;;12.10;99.90;;;;;;5094985;28;20031;-75
2023/10/15 11:58:27;;;;;;;1999.90;999.90;;;12.50;99.90;;;;;;5094180;28;20028;-74
2023/10/15 12:00:53;;;;;;;1999.90;999.90;;;12.80;99.90;;;;;;5094246;28;20068;-74
2023/10/15 12:03:20;;;;;;;1999.90;999.90;;;13.10;99.90;;;;;;5095407;28;20107;-74
2023/10/15 12:05:46;;;;;;;1999.90;999.90;;;13.10;99.90;;;;;;5092631;28;20067;-74
2023/10/15 12:08:12;;;;;;;1999.90;999.90;;;12.70;99.90;;;;;;5094393;28;20039;-74
2023/10/15 12:10:42;;;;;;;1999.90;999.90;;;12.20;99.90;;;;;;5094856;28;20121;-74
2023/10/15 12:13:16;;;;;;;1999.90;999.90;;;11.40;99.90;;;;;;5094097;28;20585;-76
2023/10/15 12:15:42;;;;;;;1999.90;999.90;;;10.00;99.90;;;;;;5095422;28;20074;-75
2023/10/15 12:18:08;;;;;;;1999.90;999.90;;;8.90;99.90;;;;;;5095555;28;20506;-74
2023/10/15 12:20:34;;;;;;;1999.90;999.90;;;8.40;99.90;;;;;;5094916;28;20036;-74
2023/10/15 12:22:59;;;;;;;1999.90;999.90;;;8.30;99.90;;;;;;5094574;28;20068;-74
2023/10/15 12:25:25;;;;;;;1999.90;999.90;;;8.60;99.90;;;;;;5095471;28;20043;-74
2023/10/15 12:27:51;;;;;;;1999.90;999.90;;;8.80;99.90;;;;;;5095334;28;20059;-74
2023/10/15 12:30:28;;;;;;;1999.90;999.90;;;8.80;99.90;;;;;;5095324;28;20076;-74